Карточка аэропорта UOOO

Внимание!
Информация на этой странице в стадии наполнения.
Если вы не увидели какой-то информации, или заметили неточность - пожалуйста сообщите нам!
Спасибо!
Команда RU-STAFF
Название аэропортаАлыкель
Название аэропорта (англ.)Alykel
Превышение574 ft. (175 m.)
Координаты69°19.02', 87°19.02'
Высота перехода1200m
Эшелон переходаQFE>744:FL60;744>QFE>717:FL70;717>QFE:FL80
Коды ответчика5401-5427
Зона ОрВДКрасноярск РПИ (UNKL)
Данные METARUOOO 171900Z 04002MPS CAVOK 03/M01 Q1007 R01/CLRD60 NOSIG RMK QFE741/0988
Проноз погоды (TAF)UOOO 171652Z 1718/1818 36003G08MPS 6000 SCT016 BECMG 1800/1804 28005G12MPS TEMPO 1812/1818 0300 FG VV002 BECMG 1813/1816 19008G15MPS
NOTAMshow/hide NOTAM
AWOS   TABLE

Информация о ВПП

ВПП Длина ВПП (м.) Покрытие Курс ВПП Частота ILS
013430Бетон13109.5
193430Бетон193110.3

Диспетчерские позиции

Позывной Наименование органа УВД Частота
UOOO_TWRНорильск - Старт118.300
UOOO_R_APPНорильск - Круг120.400
UOOO_GNDНорильск - Руление121.700



Спутниковое изображение